sensor_id;sensor_type;location;lat;lon;timestamp;pressure;altitude;pressure_sealevel;temperature;humidity
50349;BME280;36250;48.740;22.174;2023-04-08T00:01:57;100833.44;;;2.95;75.97
50349;BME280;36250;48.740;22.174;2023-04-08T00:04:23;100833.38;;;3.03;76.12
50349;BME280;36250;48.740;22.174;2023-04-08T00:06:48;100829.63;;;3.04;75.96
50349;BME280;36250;48.740;22.174;2023-04-08T00:09:14;100831.13;;;3.06;74.88
50349;BME280;36250;48.740;22.174;2023-04-08T00:11:39;100826.66;;;2.84;75.22
50349;BME280;36250;48.740;22.174;2023-04-08T00:14:04;100831.47;;;2.74;76.29
50349;BME280;36250;48.740;22.174;2023-04-08T00:16:30;100829.47;;;2.76;74.93
50349;BME280;36250;48.740;22.174;2023-04-08T00:18:55;100827.50;;;2.70;74.94
50349;BME280;36250;48.740;22.174;2023-04-08T00:21:21;100829.72;;;2.66;75.35
50349;BME280;36250;48.740;22.174;2023-04-08T00:23:47;100829.34;;;2.70;76.08
50349;BME280;36250;48.740;22.174;2023-04-08T00:26:13;100835.19;;;2.73;75.98
50349;BME280;36250;48.740;22.174;2023-04-08T00:28:38;100834.44;;;2.79;75.54
50349;BME280;36250;48.740;22.174;2023-04-08T00:31:03;100833.09;;;2.83;75.70
50349;BME280;36250;48.740;22.174;2023-04-08T00:33:29;100833.81;;;2.77;75.07
50349;BME280;36250;48.740;22.174;2023-04-08T00:35:55;100841.47;;;2.51;75.00
50349;BME280;36250;48.740;22.174;2023-04-08T00:38:20;100825.13;;;2.38;76.06
50349;BME280;36250;48.740;22.174;2023-04-08T00:40:45;100835.88;;;2.38;76.33
50349;BME280;36250;48.740;22.174;2023-04-08T00:43:11;100832.72;;;2.34;76.80
50349;BME280;36250;48.740;22.174;2023-04-08T00:45:36;100836.22;;;2.35;76.40
50349;BME280;36250;48.740;22.174;2023-04-08T00:48:03;100832.63;;;2.42;76.44
50349;BME280;36250;48.740;22.174;2023-04-08T00:50:28;100830.72;;;2.51;76.74
50349;BME280;36250;48.740;22.174;2023-04-08T00:52:54;100826.28;;;2.58;76.78
50349;BME280;36250;48.740;22.174;2023-04-08T00:55:19;100823.22;;;2.61;76.01
50349;BME280;36250;48.740;22.174;2023-04-08T00:57:45;100825.09;;;2.60;75.43
50349;BME280;36250;48.740;22.174;2023-04-08T01:00:11;100827.13;;;2.58;75.92
50349;BME280;36250;48.740;22.174;2023-04-08T01:03:04;100828.38;;;2.48;76.08
50349;BME280;36250;48.740;22.174;2023-04-08T01:05:55;100836.81;;;2.45;75.98
50349;BME280;36250;48.740;22.174;2023-04-08T01:08:26;100830.78;;;2.43;76.36
50349;BME280;36250;48.740;22.174;2023-04-08T01:10:57;100834.31;;;2.43;76.19
50349;BME280;36250;48.740;22.174;2023-04-08T01:13:26;100832.63;;;2.42;75.80
50349;BME280;36250;48.740;22.174;2023-04-08T01:15:54;100828.00;;;2.36;76.08
50349;BME280;36250;48.740;22.174;2023-04-08T01:18:20;100834.94;;;2.31;76.51
50349;BME280;36250;48.740;22.174;2023-04-08T01:20:47;100826.59;;;2.26;76.60
50349;BME280;36250;48.740;22.174;2023-04-08T01:23:27;100836.38;;;2.19;76.78
50349;BME280;36250;48.740;22.174;2023-04-08T01:25:55;100839.50;;;2.08;76.31
50349;BME280;36250;48.740;22.174;2023-04-08T01:28:23;100836.88;;;1.99;76.93
50349;BME280;36250;48.740;22.174;2023-04-08T01:30:50;100835.56;;;1.95;77.72
50349;BME280;36250;48.740;22.174;2023-04-08T01:33:17;100839.75;;;1.98;77.77
50349;BME280;36250;48.740;22.174;2023-04-08T01:35:43;100846.06;;;2.05;77.64
50349;BME280;36250;48.740;22.174;2023-04-08T01:38:13;100848.91;;;2.04;77.32
50349;BME280;36250;48.740;22.174;2023-04-08T01:40:41;100845.81;;;2.15;77.88
50349;BME280;36250;48.740;22.174;2023-04-08T01:43:09;100848.91;;;2.26;77.94
50349;BME280;36250;48.740;22.174;2023-04-08T01:45:35;100843.63;;;2.33;78.10
50349;BME280;36250;48.740;22.174;2023-04-08T01:48:01;100843.09;;;2.37;77.34
50349;BME280;36250;48.740;22.174;2023-04-08T01:50:28;100846.63;;;2.38;77.91
50349;BME280;36250;48.740;22.174;2023-04-08T01:52:56;100852.00;;;2.38;77.84
50349;BME280;36250;48.740;22.174;2023-04-08T01:55:23;100848.09;;;2.40;77.29
50349;BME280;36250;48.740;22.174;2023-04-08T01:57:51;100843.88;;;2.46;77.63
50349;BME280;36250;48.740;22.174;2023-04-08T02:00:24;100847.50;;;2.53;77.42
50349;BME280;36250;48.740;22.174;2023-04-08T02:02:51;100844.81;;;2.53;76.74
50349;BME280;36250;48.740;22.174;2023-04-08T02:05:18;100839.59;;;2.37;76.06
50349;BME280;36250;48.740;22.174;2023-04-08T02:07:43;100843.59;;;2.18;76.50
50349;BME280;36250;48.740;22.174;2023-04-08T02:10:11;100849.25;;;2.00;76.99
50349;BME280;36250;48.740;22.174;2023-04-08T02:12:36;100847.72;;;1.83;77.29
50349;BME280;36250;48.740;22.174;2023-04-08T02:15:01;100846.91;;;1.83;77.66
50349;BME280;36250;48.740;22.174;2023-04-08T02:17:49;100843.25;;;1.76;77.86
50349;BME280;36250;48.740;22.174;2023-04-08T02:20:17;100839.97;;;1.66;77.90
50349;BME280;36250;48.740;22.174;2023-04-08T02:25:22;100848.66;;;1.68;78.44
50349;BME280;36250;48.740;22.174;2023-04-08T02:27:49;100845.44;;;1.72;78.25
50349;BME280;36250;48.740;22.174;2023-04-08T02:30:16;100844.38;;;1.81;78.49
50349;BME280;36250;48.740;22.174;2023-04-08T02:32:43;100850.59;;;1.82;77.78
50349;BME280;36250;48.740;22.174;2023-04-08T02:35:11;100853.31;;;1.74;78.53
50349;BME280;36250;48.740;22.174;2023-04-08T02:37:37;100855.53;;;1.70;78.97
50349;BME280;36250;48.740;22.174;2023-04-08T02:40:04;100860.00;;;1.78;79.06
50349;BME280;36250;48.740;22.174;2023-04-08T02:42:46;100857.94;;;1.88;78.57
50349;BME280;36250;48.740;22.174;2023-04-08T02:45:11;100857.03;;;1.95;78.51
50349;BME280;36250;48.740;22.174;2023-04-08T02:47:36;100857.75;;;1.89;78.15
50349;BME280;36250;48.740;22.174;2023-04-08T02:50:02;100849.50;;;1.91;78.56
50349;BME280;36250;48.740;22.174;2023-04-08T02:52:27;100843.91;;;2.00;78.82
50349;BME280;36250;48.740;22.174;2023-04-08T02:54:52;100848.91;;;2.04;78.69
50349;BME280;36250;48.740;22.174;2023-04-08T02:57:17;100854.78;;;2.07;79.16
50349;BME280;36250;48.740;22.174;2023-04-08T02:59:43;100859.31;;;2.07;78.88
50349;BME280;36250;48.740;22.174;2023-04-08T03:02:08;100861.09;;;2.14;78.23
50349;BME280;36250;48.740;22.174;2023-04-08T03:04:33;100856.88;;;2.20;78.02
50349;BME280;36250;48.740;22.174;2023-04-08T03:06:59;100858.25;;;2.30;78.25
50349;BME280;36250;48.740;22.174;2023-04-08T03:09:24;100857.66;;;2.43;78.13
50349;BME280;36250;48.740;22.174;2023-04-08T03:11:50;100857.69;;;2.57;77.37
50349;BME280;36250;48.740;22.174;2023-04-08T03:14:17;100865.88;;;2.64;76.77
50349;BME280;36250;48.740;22.174;2023-04-08T03:16:42;100862.16;;;2.65;76.54
50349;BME280;36250;48.740;22.174;2023-04-08T03:19:07;100865.09;;;2.55;76.66
50349;BME280;36250;48.740;22.174;2023-04-08T03:21:33;100863.06;;;2.57;77.37
50349;BME280;36250;48.740;22.174;2023-04-08T03:23:58;100869.75;;;2.61;76.76
50349;BME280;36250;48.740;22.174;2023-04-08T03:26:23;100869.84;;;2.68;77.49
50349;BME280;36250;48.740;22.174;2023-04-08T03:28:51;100860.41;;;2.72;76.31
50349;BME280;36250;48.740;22.174;2023-04-08T03:31:16;100863.72;;;2.74;76.09
50349;BME280;36250;48.740;22.174;2023-04-08T03:33:45;100872.91;;;2.80;76.62
50349;BME280;36250;48.740;22.174;2023-04-08T03:36:10;100873.69;;;2.88;76.08
50349;BME280;36250;48.740;22.174;2023-04-08T03:38:36;100869.53;;;3.00;76.73
50349;BME280;36250;48.740;22.174;2023-04-08T03:41:01;100873.31;;;3.06;75.98
50349;BME280;36250;48.740;22.174;2023-04-08T03:43:27;100869.13;;;3.03;76.12
50349;BME280;36250;48.740;22.174;2023-04-08T03:45:52;100867.41;;;2.96;75.72
50349;BME280;36250;48.740;22.174;2023-04-08T03:48:17;100873.59;;;2.96;75.93
50349;BME280;36250;48.740;22.174;2023-04-08T03:50:43;100871.56;;;2.98;76.38
50349;BME280;36250;48.740;22.174;2023-04-08T03:53:08;100881.94;;;3.01;76.14
50349;BME280;36250;48.740;22.174;2023-04-08T03:55:35;100876.47;;;2.95;75.60
50349;BME280;36250;48.740;22.174;2023-04-08T03:58:01;100884.44;;;2.88;75.69
50349;BME280;36250;48.740;22.174;2023-04-08T04:00:26;100888.41;;;2.92;75.59
50349;BME280;36250;48.740;22.174;2023-04-08T04:02:52;100886.03;;;2.97;76.17
50349;BME280;36250;48.740;22.174;2023-04-08T04:05:17;100886.31;;;3.02;75.48
50349;BME280;36250;48.740;22.174;2023-04-08T04:07:43;100881.56;;;3.04;76.15
50349;BME280;36250;48.740;22.174;2023-04-08T04:10:08;100881.56;;;3.04;75.53
50349;BME280;36250;48.740;22.174;2023-04-08T04:12:35;100889.91;;;3.09;76.40
50349;BME280;36250;48.740;22.174;2023-04-08T04:15:00;100888.16;;;3.16;75.46
50349;BME280;36250;48.740;22.174;2023-04-08T04:17:25;100882.56;;;3.18;75.36
50349;BME280;36250;48.740;22.174;2023-04-08T04:19:51;100888.22;;;3.08;75.54
50349;BME280;36250;48.740;22.174;2023-04-08T04:22:17;100899.84;;;3.09;76.16
50349;BME280;36250;48.740;22.174;2023-04-08T04:24:46;100888.78;;;3.18;75.99
50349;BME280;36250;48.740;22.174;2023-04-08T04:27:11;100891.31;;;3.20;75.95
50349;BME280;36250;48.740;22.174;2023-04-08T04:29:36;100895.09;;;3.25;76.21
50349;BME280;36250;48.740;22.174;2023-04-08T04:32:02;100898.47;;;3.27;75.96
50349;BME280;36250;48.740;22.174;2023-04-08T04:34:27;100906.81;;;3.33;75.62
50349;BME280;36250;48.740;22.174;2023-04-08T04:36:52;100902.34;;;3.40;75.37
50349;BME280;36250;48.740;22.174;2023-04-08T04:39:18;100904.91;;;3.48;75.42
50349;BME280;36250;48.740;22.174;2023-04-08T04:41:43;100900.84;;;3.52;75.06
50349;BME280;36250;48.740;22.174;2023-04-08T04:44:08;100900.00;;;3.51;75.30
50349;BME280;36250;48.740;22.174;2023-04-08T04:46:34;100904.25;;;3.60;74.99
50349;BME280;36250;48.740;22.174;2023-04-08T04:48:59;100913.09;;;3.69;74.86
50349;BME280;36250;48.740;22.174;2023-04-08T04:51:25;100904.50;;;3.80;74.33
50349;BME280;36250;48.740;22.174;2023-04-08T04:53:51;100913.31;;;3.88;74.35
50349;BME280;36250;48.740;22.174;2023-04-08T04:56:16;100916.72;;;3.97;75.21
50349;BME280;36250;48.740;22.174;2023-04-08T04:58:42;100906.47;;;4.07;74.66
50349;BME280;36250;48.740;22.174;2023-04-08T05:01:07;100905.06;;;4.11;73.96
50349;BME280;36250;48.740;22.174;2023-04-08T05:03:33;100904.03;;;4.12;74.62
50349;BME280;36250;48.740;22.174;2023-04-08T05:05:58;100916.72;;;4.18;74.58
50349;BME280;36250;48.740;22.174;2023-04-08T05:08:23;100914.13;;;4.25;74.66
50349;BME280;36250;48.740;22.174;2023-04-08T05:10:49;100915.22;;;4.30;74.90
50349;BME280;36250;48.740;22.174;2023-04-08T05:13:15;100911.38;;;4.39;74.32
50349;BME280;36250;48.740;22.174;2023-04-08T05:15:41;100922.66;;;4.49;74.69
50349;BME280;36250;48.740;22.174;2023-04-08T05:18:06;100924.78;;;4.54;74.39
50349;BME280;36250;48.740;22.174;2023-04-08T05:20:32;100921.72;;;4.57;74.32
50349;BME280;36250;48.740;22.174;2023-04-08T05:22:57;100918.84;;;4.65;74.47
50349;BME280;36250;48.740;22.174;2023-04-08T05:25:22;100931.38;;;4.73;73.85
50349;BME280;36250;48.740;22.174;2023-04-08T05:27:48;100931.66;;;4.84;73.52
50349;BME280;36250;48.740;22.174;2023-04-08T05:30:13;100926.34;;;4.91;73.26
50349;BME280;36250;48.740;22.174;2023-04-08T05:32:38;100935.91;;;4.93;73.39
50349;BME280;36250;48.740;22.174;2023-04-08T05:35:04;100931.59;;;4.99;72.99
50349;BME280;36250;48.740;22.174;2023-04-08T05:37:30;100938.44;;;5.01;73.49
50349;BME280;36250;48.740;22.174;2023-04-08T05:39:55;100935.69;;;4.95;73.76
50349;BME280;36250;48.740;22.174;2023-04-08T05:42:20;100934.69;;;4.96;73.22
50349;BME280;36250;48.740;22.174;2023-04-08T05:44:46;100940.47;;;4.93;72.87
50349;BME280;36250;48.740;22.174;2023-04-08T05:47:11;100938.78;;;4.92;72.65
50349;BME280;36250;48.740;22.174;2023-04-08T05:49:37;100945.84;;;4.93;72.12
50349;BME280;36250;48.740;22.174;2023-04-08T05:52:02;100942.53;;;4.91;71.75
50349;BME280;36250;48.740;22.174;2023-04-08T05:54:28;100945.00;;;4.92;71.84
50349;BME280;36250;48.740;22.174;2023-04-08T05:56:54;100944.00;;;4.93;71.74
50349;BME280;36250;48.740;22.174;2023-04-08T05:59:19;100956.44;;;4.94;71.77
50349;BME280;36250;48.740;22.174;2023-04-08T06:01:45;100946.50;;;4.95;72.64
50349;BME280;36250;48.740;22.174;2023-04-08T06:04:10;100948.41;;;5.01;72.13
50349;BME280;36250;48.740;22.174;2023-04-08T06:06:38;100958.63;;;5.05;71.73
50349;BME280;36250;48.740;22.174;2023-04-08T06:09:04;100959.28;;;5.14;72.03
50349;BME280;36250;48.740;22.174;2023-04-08T06:11:30;100966.88;;;5.25;71.78
50349;BME280;36250;48.740;22.174;2023-04-08T06:13:55;100958.19;;;5.36;71.47
50349;BME280;36250;48.740;22.174;2023-04-08T06:16:21;100969.31;;;5.48;71.02
50349;BME280;36250;48.740;22.174;2023-04-08T06:18:46;100958.38;;;5.62;70.91
50349;BME280;36250;48.740;22.174;2023-04-08T06:21:11;100963.66;;;5.83;69.86
50349;BME280;36250;48.740;22.174;2023-04-08T06:23:37;100960.84;;;5.98;69.68
50349;BME280;36250;48.740;22.174;2023-04-08T06:26:02;100960.41;;;5.94;70.06
50349;BME280;36250;48.740;22.174;2023-04-08T06:28:29;100962.00;;;5.82;70.12
50349;BME280;36250;48.740;22.174;2023-04-08T06:30:55;100966.97;;;5.79;70.37
50349;BME280;36250;48.740;22.174;2023-04-08T06:33:20;100966.50;;;5.69;70.00
50349;BME280;36250;48.740;22.174;2023-04-08T06:35:46;100970.53;;;5.79;69.75
50349;BME280;36250;48.740;22.174;2023-04-08T06:38:11;100963.97;;;6.02;70.31
50349;BME280;36250;48.740;22.174;2023-04-08T06:40:38;100958.84;;;6.20;69.82
50349;BME280;36250;48.740;22.174;2023-04-08T06:43:03;100963.63;;;6.18;69.12
50349;BME280;36250;48.740;22.174;2023-04-08T06:45:29;100967.56;;;6.15;69.67
50349;BME280;36250;48.740;22.174;2023-04-08T06:47:54;100964.25;;;6.26;70.22
50349;BME280;36250;48.740;22.174;2023-04-08T06:50:20;100972.44;;;6.39;70.27
50349;BME280;36250;48.740;22.174;2023-04-08T06:52:46;100977.88;;;6.52;69.78
50349;BME280;36250;48.740;22.174;2023-04-08T06:55:11;100964.97;;;6.54;69.20
50349;BME280;36250;48.740;22.174;2023-04-08T06:57:36;100976.59;;;6.42;69.13
50349;BME280;36250;48.740;22.174;2023-04-08T07:00:02;100974.28;;;6.32;70.16
50349;BME280;36250;48.740;22.174;2023-04-08T07:02:28;100974.91;;;6.28;70.15
50349;BME280;36250;48.740;22.174;2023-04-08T07:04:53;100976.97;;;6.26;69.45
50349;BME280;36250;48.740;22.174;2023-04-08T07:07:19;100975.28;;;6.18;70.25
50349;BME280;36250;48.740;22.174;2023-04-08T07:09:44;100971.75;;;6.18;69.87
50349;BME280;36250;48.740;22.174;2023-04-08T07:12:13;100976.09;;;6.19;70.16
50349;BME280;36250;48.740;22.174;2023-04-08T07:14:38;100977.38;;;6.23;70.83
50349;BME280;36250;48.740;22.174;2023-04-08T07:17:04;100990.72;;;6.37;70.31
50349;BME280;36250;48.740;22.174;2023-04-08T07:19:30;100980.31;;;6.41;70.06
50349;BME280;36250;48.740;22.174;2023-04-08T07:21:55;100980.75;;;6.38;69.78
50349;BME280;36250;48.740;22.174;2023-04-08T07:24:22;100977.88;;;6.59;69.92
50349;BME280;36250;48.740;22.174;2023-04-08T07:26:47;100982.88;;;6.75;69.80
50349;BME280;36250;48.740;22.174;2023-04-08T07:29:13;100979.56;;;6.99;69.16
50349;BME280;36250;48.740;22.174;2023-04-08T07:31:42;100990.00;;;7.15;69.34
50349;BME280;36250;48.740;22.174;2023-04-08T07:34:07;100985.41;;;7.29;68.49
50349;BME280;36250;48.740;22.174;2023-04-08T07:36:33;100994.16;;;7.24;67.39
50349;BME280;36250;48.740;22.174;2023-04-08T07:38:58;100982.28;;;7.25;67.29
50349;BME280;36250;48.740;22.174;2023-04-08T07:41:23;100986.84;;;7.51;66.65
50349;BME280;36250;48.740;22.174;2023-04-08T07:43:49;100991.59;;;7.69;67.17
50349;BME280;36250;48.740;22.174;2023-04-08T07:46:14;100987.56;;;7.91;65.82
50349;BME280;36250;48.740;22.174;2023-04-08T07:48:40;100992.56;;;7.94;65.03
50349;BME280;36250;48.740;22.174;2023-04-08T07:51:07;100993.66;;;7.80;63.81
50349;BME280;36250;48.740;22.174;2023-04-08T07:53:32;101002.41;;;7.82;63.87
50349;BME280;36250;48.740;22.174;2023-04-08T07:55:58;101000.09;;;7.92;64.31
50349;BME280;36250;48.740;22.174;2023-04-08T07:58:24;100991.47;;;8.08;63.04
50349;BME280;36250;48.740;22.174;2023-04-08T08:00:50;100998.34;;;8.11;63.48
50349;BME280;36250;48.740;22.174;2023-04-08T08:03:16;101001.63;;;8.19;63.00
50349;BME280;36250;48.740;22.174;2023-04-08T08:05:41;101001.38;;;8.40;61.83
50349;BME280;36250;48.740;22.174;2023-04-08T08:08:06;101000.00;;;8.63;60.72
50349;BME280;36250;48.740;22.174;2023-04-08T08:10:32;100990.41;;;8.60;60.99
50349;BME280;36250;48.740;22.174;2023-04-08T08:12:58;100997.50;;;8.61;59.86
50349;BME280;36250;48.740;22.174;2023-04-08T08:15:23;100995.41;;;8.63;60.07
50349;BME280;36250;48.740;22.174;2023-04-08T08:17:48;101001.75;;;8.50;58.33
50349;BME280;36250;48.740;22.174;2023-04-08T08:20:14;100994.88;;;8.41;58.93
50349;BME280;36250;48.740;22.174;2023-04-08T08:22:40;101001.66;;;8.64;59.40
50349;BME280;36250;48.740;22.174;2023-04-08T08:25:06;101000.78;;;8.70;58.95
50349;BME280;36250;48.740;22.174;2023-04-08T08:27:34;100993.25;;;8.72;58.31
50349;BME280;36250;48.740;22.174;2023-04-08T08:29:59;100996.94;;;8.84;57.97
50349;BME280;36250;48.740;22.174;2023-04-08T08:32:24;100995.25;;;8.83;57.91
50349;BME280;36250;48.740;22.174;2023-04-08T08:34:50;100985.63;;;8.87;58.49
50349;BME280;36250;48.740;22.174;2023-04-08T08:37:15;100994.66;;;9.12;56.72
50349;BME280;36250;48.740;22.174;2023-04-08T08:39:41;101001.91;;;9.18;57.02
50349;BME280;36250;48.740;22.174;2023-04-08T08:42:06;100996.47;;;9.18;57.71
50349;BME280;36250;48.740;22.174;2023-04-08T08:44:31;100995.44;;;9.12;57.22
50349;BME280;36250;48.740;22.174;2023-04-08T08:46:57;101003.16;;;9.15;57.15
50349;BME280;36250;48.740;22.174;2023-04-08T08:49:22;100999.44;;;9.35;57.41
50349;BME280;36250;48.740;22.174;2023-04-08T08:51:48;101002.47;;;9.69;57.05
50349;BME280;36250;48.740;22.174;2023-04-08T08:54:15;101005.56;;;9.91;55.03
50349;BME280;36250;48.740;22.174;2023-04-08T08:56:41;101002.47;;;10.06;55.07
50349;BME280;36250;48.740;22.174;2023-04-08T08:59:08;101004.69;;;10.15;55.14
50349;BME280;36250;48.740;22.174;2023-04-08T09:01:39;101013.97;;;10.26;54.65
50349;BME280;36250;48.740;22.174;2023-04-08T09:04:18;101012.78;;;10.51;55.85
50349;BME280;36250;48.740;22.174;2023-04-08T09:06:49;101009.78;;;10.71;53.65
50349;BME280;36250;48.740;22.174;2023-04-08T09:09:15;101011.16;;;10.80;54.45
50349;BME280;36250;48.740;22.174;2023-04-08T09:11:43;101003.50;;;11.00;52.78
50349;BME280;36250;48.740;22.174;2023-04-08T09:14:22;101001.97;;;11.04;53.82
50349;BME280;36250;48.740;22.174;2023-04-08T09:16:49;101004.97;;;11.26;53.56
50349;BME280;36250;48.740;22.174;2023-04-08T09:19:15;101000.47;;;11.32;53.22
50349;BME280;36250;48.740;22.174;2023-04-08T09:21:41;101004.25;;;11.42;52.56
50349;BME280;36250;48.740;22.174;2023-04-08T09:24:07;101008.53;;;11.50;52.25
50349;BME280;36250;48.740;22.174;2023-04-08T09:26:32;101012.69;;;11.41;52.27
50349;BME280;36250;48.740;22.174;2023-04-08T09:29:05;101012.91;;;11.28;52.40
50349;BME280;36250;48.740;22.174;2023-04-08T09:31:36;101012.91;;;11.28;52.93
50349;BME280;36250;48.740;22.174;2023-04-08T09:34:13;101017.56;;;11.39;52.64
50349;BME280;36250;48.740;22.174;2023-04-08T09:36:41;101013.06;;;11.44;52.33
50349;BME280;36250;48.740;22.174;2023-04-08T09:39:06;101015.28;;;11.47;51.95
50349;BME280;36250;48.740;22.174;2023-04-08T09:41:36;101012.59;;;11.59;52.19
50349;BME280;36250;48.740;22.174;2023-04-08T09:44:06;101012.38;;;11.72;51.40
50349;BME280;36250;48.740;22.174;2023-04-08T09:52:14;101013.06;;;11.67;50.32
50349;BME280;36250;48.740;22.174;2023-04-08T09:57:51;101010.22;;;11.51;52.83
50349;BME280;36250;48.740;22.174;2023-04-08T10:00:17;101016.84;;;11.55;51.09
50349;BME280;36250;48.740;22.174;2023-04-08T10:05:18;101013.88;;;11.45;52.14
50349;BME280;36250;48.740;22.174;2023-04-08T10:07:45;101010.78;;;11.64;51.96
50349;BME280;36250;48.740;22.174;2023-04-08T10:10:10;101006.78;;;11.90;52.31
50349;BME280;36250;48.740;22.174;2023-04-08T10:12:37;101008.25;;;12.21;51.68
50349;BME280;36250;48.740;22.174;2023-04-08T10:15:22;101005.59;;;12.37;50.42
50349;BME280;36250;48.740;22.174;2023-04-08T10:17:49;101008.53;;;12.47;49.90
50349;BME280;36250;48.740;22.174;2023-04-08T10:23:02;101010.19;;;12.77;48.67
50349;BME280;36250;48.740;22.174;2023-04-08T10:25:35;101003.94;;;12.65;48.89
50349;BME280;36250;48.740;22.174;2023-04-08T10:30:48;101008.19;;;12.72;48.57
50349;BME280;36250;48.740;22.174;2023-04-08T10:33:16;101005.66;;;12.82;48.45
50349;BME280;36250;48.740;22.174;2023-04-08T10:35:52;101010.66;;;13.02;48.23
50349;BME280;36250;48.740;22.174;2023-04-08T10:38:18;101001.09;;;13.16;47.50
50349;BME280;36250;48.740;22.174;2023-04-08T10:40:44;101009.41;;;12.65;48.19
50349;BME280;36250;48.740;22.174;2023-04-08T10:43:11;100999.28;;;12.09;49.26
50349;BME280;36250;48.740;22.174;2023-04-08T10:45:38;101002.16;;;11.79;50.33
50349;BME280;36250;48.740;22.174;2023-04-08T10:48:14;101009.16;;;11.75;50.68
50349;BME280;36250;48.740;22.174;2023-04-08T10:50:42;101000.88;;;11.93;51.92
50349;BME280;36250;48.740;22.174;2023-04-08T10:53:08;101011.94;;;12.26;51.29
50349;BME280;36250;48.740;22.174;2023-04-08T10:55:34;101002.69;;;12.27;49.61
50349;BME280;36250;48.740;22.174;2023-04-08T10:58:06;100998.66;;;12.18;49.52
50349;BME280;36250;48.740;22.174;2023-04-08T11:00:33;101000.91;;;12.21;50.23
50349;BME280;36250;48.740;22.174;2023-04-08T11:03:07;100999.53;;;11.84;49.28
50349;BME280;36250;48.740;22.174;2023-04-08T11:05:34;100998.72;;;11.49;50.44
50349;BME280;36250;48.740;22.174;2023-04-08T11:08:01;101008.06;;;11.41;50.98
50349;BME280;36250;48.740;22.174;2023-04-08T11:10:27;100993.38;;;11.31;51.34
50349;BME280;36250;48.740;22.174;2023-04-08T11:12:57;100998.47;;;11.27;52.39
50349;BME280;36250;48.740;22.174;2023-04-08T11:15:25;100998.94;;;11.24;51.29
50349;BME280;36250;48.740;22.174;2023-04-08T11:17:52;100997.84;;;11.13;52.38
50349;BME280;36250;48.740;22.174;2023-04-08T11:20:19;101000.88;;;10.94;52.72
50349;BME280;36250;48.740;22.174;2023-04-08T11:22:45;101002.56;;;11.06;53.19
50349;BME280;36250;48.740;22.174;2023-04-08T11:25:11;100988.09;;;11.06;52.62
50349;BME280;36250;48.740;22.174;2023-04-08T11:27:37;100995.22;;;11.07;52.21
50349;BME280;36250;48.740;22.174;2023-04-08T11:30:04;100997.25;;;11.23;52.94
50349;BME280;36250;48.740;22.174;2023-04-08T11:32:31;101003.16;;;11.20;51.72
50349;BME280;36250;48.740;22.174;2023-04-08T11:35:00;100994.66;;;11.16;53.60
50349;BME280;36250;48.740;22.174;2023-04-08T11:37:35;100989.22;;;11.63;52.73
50349;BME280;36250;48.740;22.174;2023-04-08T11:40:00;100989.25;;;12.26;51.32
50349;BME280;36250;48.740;22.174;2023-04-08T11:42:30;100980.03;;;12.72;49.87
50349;BME280;36250;48.740;22.174;2023-04-08T11:44:56;100976.13;;;12.96;48.90
50349;BME280;36250;48.740;22.174;2023-04-08T11:47:32;100978.91;;;13.12;48.10
50349;BME280;36250;48.740;22.174;2023-04-08T11:49:58;100977.22;;;13.28;47.82
50349;BME280;36250;48.740;22.174;2023-04-08T11:52:48;100979.97;;;13.45;45.63
50349;BME280;36250;48.740;22.174;2023-04-08T11:55:28;100972.25;;;13.08;46.10
50349;BME280;36250;48.740;22.174;2023-04-08T11:57:55;100972.22;;;12.92;47.36
50349;BME280;36250;48.740;22.174;2023-04-08T12:00:21;100971.47;;;13.08;47.92
50349;BME280;36250;48.740;22.174;2023-04-08T12:02:47;100970.38;;;13.09;47.08
50349;BME280;36250;48.740;22.174;2023-04-08T12:05:14;100966.94;;;13.02;46.36
50349;BME280;36250;48.740;22.174;2023-04-08T12:07:40;100971.06;;;13.04;46.57
50349;BME280;36250;48.740;22.174;2023-04-08T12:10:06;100960.09;;;13.16;46.50
50349;BME280;36250;48.740;22.174;2023-04-08T12:12:32;100968.13;;;13.39;46.91
50349;BME280;36250;48.740;22.174;2023-04-08T12:14:57;100962.16;;;13.80;44.86
50349;BME280;36250;48.740;22.174;2023-04-08T12:17:22;100955.66;;;13.87;44.96
50349;BME280;36250;48.740;22.174;2023-04-08T12:19:48;100957.84;;;14.06;43.96
50349;BME280;36250;48.740;22.174;2023-04-08T12:22:13;100951.66;;;13.72;42.40
50349;BME280;36250;48.740;22.174;2023-04-08T12:24:39;100961.00;;;13.38;46.16
50349;BME280;36250;48.740;22.174;2023-04-08T12:27:04;100961.97;;;13.49;45.87
50349;BME280;36250;48.740;22.174;2023-04-08T12:29:30;100958.09;;;13.45;46.14
50349;BME280;36250;48.740;22.174;2023-04-08T12:31:55;100955.00;;;13.58;45.34
50349;BME280;36250;48.740;22.174;2023-04-08T12:34:21;100959.72;;;13.62;44.98
50349;BME280;36250;48.740;22.174;2023-04-08T12:36:46;100954.16;;;13.57;45.85
50349;BME280;36250;48.740;22.174;2023-04-08T12:39:13;100969.28;;;13.43;45.48
50349;BME280;36250;48.740;22.174;2023-04-08T12:41:38;100965.38;;;13.56;44.76
50349;BME280;36250;48.740;22.174;2023-04-08T12:44:04;100965.25;;;13.67;44.85
50349;BME280;36250;48.740;22.174;2023-04-08T12:46:29;100970.28;;;13.37;46.38
50349;BME280;36250;48.740;22.174;2023-04-08T12:48:54;100958.53;;;13.20;45.82
50349;BME280;36250;48.740;22.174;2023-04-08T12:51:20;100965.72;;;13.26;44.68
50349;BME280;36250;48.740;22.174;2023-04-08T12:53:45;100958.72;;;13.02;45.09
50349;BME280;36250;48.740;22.174;2023-04-08T12:56:10;100961.88;;;12.94;46.37
50349;BME280;36250;48.740;22.174;2023-04-08T12:58:36;100957.88;;;13.13;46.47
50349;BME280;36250;48.740;22.174;2023-04-08T13:01:01;100957.13;;;13.18;45.55
50349;BME280;36250;48.740;22.174;2023-04-08T13:03:27;100959.50;;;13.47;45.23
50349;BME280;36250;48.740;22.174;2023-04-08T13:05:54;100960.31;;;13.64;43.96